createdAt,value
2019-03-16T00:04:15.682Z,9.30
2019-03-16T00:06:45.600Z,9.30
2019-03-16T00:09:18.474Z,9.20
2019-03-16T00:11:48.681Z,9.10
2019-03-16T00:15:11.625Z,9.00
2019-03-16T00:17:41.530Z,8.80
2019-03-16T00:20:21.761Z,8.60
2019-03-16T00:22:57.390Z,8.40
2019-03-16T00:25:37.208Z,8.10
2019-03-16T00:28:16.563Z,8.10
2019-03-16T00:31:00.443Z,8.00
2019-03-16T00:33:48.292Z,7.90
2019-03-16T00:36:18.050Z,7.90
2019-03-16T00:39:05.713Z,7.80
2019-03-16T00:41:35.567Z,7.80
2019-03-16T00:44:20.701Z,7.70
2019-03-16T00:46:52.113Z,7.70
2019-03-16T00:49:21.509Z,7.60
2019-03-16T00:51:51.027Z,7.60
2019-03-16T00:54:20.606Z,7.60
2019-03-16T00:56:50.010Z,7.60
2019-03-16T00:59:19.502Z,7.60
2019-03-16T01:01:48.876Z,7.50
2019-03-16T01:04:18.291Z,7.50
2019-03-16T01:06:47.668Z,7.50
2019-03-16T01:09:17.210Z,7.50
2019-03-16T01:11:46.642Z,7.50
2019-03-16T01:14:16.027Z,7.50
2019-03-16T01:16:45.692Z,7.50
2019-03-16T01:19:16.316Z,7.40
2019-03-16T01:21:45.747Z,7.50
2019-03-16T01:24:15.160Z,7.50
2019-03-16T01:26:44.803Z,7.50
2019-03-16T01:29:14.257Z,7.40
2019-03-16T01:31:43.642Z,7.40
2019-03-16T01:34:13.016Z,7.40
2019-03-16T01:36:42.471Z,7.40
2019-03-16T01:39:12.848Z,7.30
2019-03-16T01:41:42.363Z,7.30
2019-03-16T01:44:11.782Z,7.30
2019-03-16T01:46:41.249Z,7.30
2019-03-16T01:49:10.689Z,7.30
2019-03-16T01:51:40.318Z,7.30
2019-03-16T01:54:09.704Z,7.20
2019-03-16T01:56:39.047Z,7.20
2019-03-16T01:59:08.493Z,7.10
2019-03-16T02:01:37.946Z,7.00
2019-03-16T02:07:28.679Z,7.00
2019-03-16T02:09:58.087Z,7.00
2019-03-16T02:12:27.442Z,7.00
2019-03-16T02:14:56.823Z,7.00
2019-03-16T02:17:26.392Z,6.90
2019-03-16T02:19:55.786Z,6.90
2019-03-16T02:22:25.245Z,6.80
2019-03-16T02:24:54.755Z,6.70
2019-03-16T02:27:24.159Z,6.80
2019-03-16T02:29:53.553Z,6.70
2019-03-16T02:32:23.263Z,6.70
2019-03-16T02:34:52.593Z,6.60
2019-03-16T02:37:22.046Z,6.60
2019-03-16T02:39:51.636Z,6.60
2019-03-16T02:42:21.062Z,6.60
2019-03-16T02:44:50.467Z,6.60
2019-03-16T02:47:19.860Z,6.50
2019-03-16T02:49:49.265Z,6.50
2019-03-16T02:52:18.679Z,6.60
2019-03-16T02:54:48.056Z,6.60
2019-03-16T02:57:17.615Z,6.60
2019-03-16T02:59:47.082Z,6.60
2019-03-16T03:02:16.757Z,6.50
2019-03-16T03:04:46.841Z,6.50
2019-03-16T03:07:16.437Z,6.50
2019-03-16T03:09:45.802Z,6.60
2019-03-16T03:12:15.137Z,6.60
2019-03-16T03:14:44.658Z,6.60
2019-03-16T03:17:14.085Z,6.60
2019-03-16T03:19:43.417Z,6.50
2019-03-16T03:22:12.825Z,6.50
2019-03-16T03:24:44.602Z,6.50
2019-03-16T03:27:13.477Z,6.60
2019-03-16T03:29:42.849Z,6.50
2019-03-16T03:32:12.451Z,6.40
2019-03-16T03:34:41.787Z,6.50
2019-03-16T03:37:11.166Z,6.50
2019-03-16T03:39:40.509Z,6.60
2019-03-16T03:42:09.963Z,6.50
2019-03-16T03:44:39.322Z,6.50
2019-03-16T03:47:08.915Z,6.50
2019-03-16T03:49:38.310Z,6.50
2019-03-16T03:52:08.659Z,6.50
2019-03-16T03:54:38.165Z,6.40
2019-03-16T03:57:07.749Z,6.40
2019-03-16T03:59:37.224Z,6.40
2019-03-16T04:02:06.624Z,6.40
2019-03-16T04:04:36.238Z,6.40
2019-03-16T04:07:05.644Z,6.40
2019-03-16T04:09:35.074Z,6.30
2019-03-16T04:12:04.592Z,6.30
2019-03-16T04:14:33.983Z,6.40
2019-03-16T04:17:03.611Z,6.30
2019-03-16T04:19:33.401Z,6.20
2019-03-16T04:22:03.125Z,6.20
2019-03-16T04:24:32.617Z,6.10
2019-03-16T04:27:15.041Z,6.20
2019-03-16T04:29:33.136Z,6.10
2019-03-16T04:32:02.557Z,6.10
2019-03-16T04:34:31.899Z,6.20
2019-03-16T04:37:01.506Z,6.20
2019-03-16T04:39:30.870Z,6.20
2019-03-16T04:42:00.288Z,6.20
2019-03-16T04:44:29.716Z,6.10
2019-03-16T04:46:59.588Z,6.10
2019-03-16T04:49:29.009Z,6.30
2019-03-16T04:51:59.066Z,6.50
2019-03-16T04:54:28.744Z,6.50
2019-03-16T04:56:58.137Z,6.20
2019-03-16T04:59:27.781Z,6.20
2019-03-16T05:01:57.243Z,6.10
2019-03-16T05:04:26.890Z,6.10
2019-03-16T05:06:56.220Z,6.10
2019-03-16T05:09:25.578Z,6.10
2019-03-16T05:11:55.006Z,6.10
2019-03-16T05:14:24.573Z,6.20
2019-03-16T05:16:53.899Z,6.10
2019-03-16T05:19:23.252Z,6.10
2019-03-16T05:21:52.679Z,6.00
2019-03-16T05:24:22.155Z,5.90
2019-03-16T05:26:51.554Z,6.00
2019-03-16T05:29:21.202Z,6.00
2019-03-16T05:31:50.860Z,6.10
2019-03-16T05:34:20.275Z,6.10
2019-03-16T05:36:49.839Z,6.20
2019-03-16T05:39:19.523Z,6.10
2019-03-16T05:41:49.337Z,6.20
2019-03-16T05:44:19.195Z,6.50
2019-03-16T05:46:48.636Z,6.50
2019-03-16T05:49:18.057Z,6.50
2019-03-16T05:51:48.433Z,6.50
2019-03-16T05:54:19.541Z,6.60
2019-03-16T05:56:48.915Z,6.50
2019-03-16T05:59:18.276Z,6.60
2019-03-16T06:01:47.689Z,6.50
2019-03-16T06:04:17.084Z,6.40
2019-03-16T06:06:46.609Z,6.30
2019-03-16T06:09:16.064Z,6.40
2019-03-16T06:11:45.491Z,6.40
2019-03-16T06:14:14.913Z,6.10
2019-03-16T06:16:45.495Z,6.20
2019-03-16T06:19:14.925Z,6.30
2019-03-16T06:21:44.274Z,6.40
2019-03-16T06:24:13.640Z,6.40
2019-03-16T06:26:43.020Z,6.50
2019-03-16T06:29:12.425Z,6.50
2019-03-16T06:31:42.034Z,6.40
2019-03-16T06:34:11.395Z,6.50
2019-03-16T06:36:40.885Z,6.50
2019-03-16T06:39:10.280Z,6.60
2019-03-16T06:41:43.226Z,6.60
2019-03-16T06:44:10.926Z,6.60
2019-03-16T06:46:40.336Z,6.50
2019-03-16T06:49:09.680Z,6.60
2019-03-16T06:51:39.141Z,6.60
2019-03-16T06:54:08.566Z,6.60
2019-03-16T06:56:38.150Z,6.60
2019-03-16T06:59:07.628Z,6.60
2019-03-16T07:01:37.069Z,6.60
2019-03-16T07:04:06.425Z,6.60
2019-03-16T07:06:35.752Z,6.70
2019-03-16T07:09:07.106Z,6.70
2019-03-16T07:11:36.674Z,6.60
2019-03-16T07:14:06.248Z,6.60
2019-03-16T07:16:35.572Z,6.60
2019-03-16T07:19:05.116Z,6.70
2019-03-16T07:21:34.651Z,6.60
2019-03-16T07:24:04.253Z,6.60
2019-03-16T07:26:33.573Z,6.60
2019-03-16T07:29:02.898Z,6.60
2019-03-16T07:31:33.299Z,6.70
2019-03-16T07:34:02.862Z,6.60
2019-03-16T07:36:34.819Z,6.70
2019-03-16T07:39:03.714Z,6.70
2019-03-16T07:41:33.143Z,6.70
2019-03-16T07:44:02.640Z,6.70
2019-03-16T07:46:32.157Z,6.70
2019-03-16T07:49:01.617Z,6.60
2019-03-16T07:51:31.239Z,6.60
2019-03-16T07:54:00.709Z,6.50
2019-03-16T07:56:31.082Z,6.50
2019-03-16T07:59:00.627Z,6.50
2019-03-16T08:01:30.400Z,6.60
2019-03-16T08:03:59.833Z,6.60
2019-03-16T08:06:29.311Z,6.60
2019-03-16T08:08:58.753Z,6.60
2019-03-16T08:11:28.152Z,6.50
2019-03-16T08:13:57.533Z,6.60
2019-03-16T08:16:27.190Z,6.70
2019-03-16T08:18:56.625Z,6.70
2019-03-16T08:21:27.338Z,6.70
2019-03-16T08:23:56.755Z,6.70
2019-03-16T08:26:26.844Z,6.70
2019-03-16T08:28:59.304Z,6.80
2019-03-16T08:31:29.130Z,6.80
2019-03-16T08:33:58.736Z,6.70
2019-03-16T08:36:28.188Z,6.60
2019-03-16T08:38:57.645Z,6.70
2019-03-16T08:41:27.107Z,6.60
2019-03-16T08:43:57.971Z,6.70
2019-03-16T08:46:27.387Z,6.50
2019-03-16T08:48:57.052Z,6.50
2019-03-16T08:51:26.584Z,6.50
2019-03-16T08:53:56.207Z,6.50
2019-03-16T08:56:25.691Z,6.60
2019-03-16T08:58:55.303Z,6.50
2019-03-16T09:01:24.854Z,6.50
2019-03-16T09:03:54.315Z,6.60
2019-03-16T09:06:24.257Z,6.60
2019-03-16T09:08:53.626Z,6.60
2019-03-16T09:11:23.162Z,6.50
2019-03-16T09:13:53.217Z,6.50
2019-03-16T09:16:22.859Z,6.50
2019-03-16T09:18:52.443Z,6.60
2019-03-16T09:21:22.063Z,6.60
2019-03-16T09:23:51.523Z,6.60
2019-03-16T09:26:21.072Z,6.60
2019-03-16T09:28:59.576Z,6.60
2019-03-16T09:31:22.084Z,6.70
2019-03-16T09:33:51.771Z,6.80
2019-03-16T09:36:21.250Z,6.80
2019-03-16T09:38:50.824Z,6.70
2019-03-16T09:41:20.425Z,6.80
2019-03-16T09:43:50.564Z,6.70
2019-03-16T09:46:20.685Z,6.80
2019-03-16T09:48:50.442Z,6.80
2019-03-16T09:51:20.124Z,6.80
2019-03-16T09:53:49.730Z,6.90
2019-03-16T09:56:19.254Z,7.00
2019-03-16T09:58:48.954Z,7.10
2019-03-16T10:01:18.569Z,7.30
2019-03-16T10:03:48.358Z,7.50
2019-03-16T10:06:17.886Z,7.60
2019-03-16T10:08:49.332Z,7.90
2019-03-16T10:11:19.452Z,8.00
2019-03-16T10:13:48.973Z,8.30
2019-03-16T10:16:18.629Z,8.40
2019-03-16T10:18:48.180Z,8.40
2019-03-16T10:21:18.893Z,8.40
2019-03-16T10:23:48.360Z,8.40
2019-03-16T10:26:18.444Z,8.40
2019-03-16T10:28:47.943Z,8.50
2019-03-16T10:31:17.613Z,8.40
2019-03-16T10:33:46.997Z,8.50
2019-03-16T10:36:18.175Z,8.40
2019-03-16T10:38:48.209Z,8.50
2019-03-16T10:41:17.846Z,8.60
2019-03-16T10:43:47.865Z,8.60
2019-03-16T10:46:17.344Z,8.50
2019-03-16T10:48:53.360Z,8.50
2019-03-16T10:51:23.240Z,8.50
2019-03-16T10:53:52.910Z,8.40
2019-03-16T10:56:22.479Z,8.50
2019-03-16T10:58:56.922Z,8.50
2019-03-16T11:01:23.589Z,8.50
2019-03-16T11:03:53.256Z,8.50
2019-03-16T11:06:23.145Z,8.50
2019-03-16T11:08:52.569Z,8.60
2019-03-16T11:11:22.122Z,8.60
2019-03-16T11:13:51.508Z,8.60
2019-03-16T11:16:21.290Z,8.60
2019-03-16T11:18:50.770Z,8.60
2019-03-16T11:21:20.504Z,8.60
2019-03-16T11:23:50.134Z,8.60
2019-03-16T11:26:19.806Z,8.60
2019-03-16T11:28:50.601Z,8.70
2019-03-16T11:31:20.030Z,8.70
2019-03-16T11:33:49.560Z,8.70
2019-03-16T11:36:19.039Z,8.60
2019-03-16T11:38:53.611Z,8.60
2019-03-16T11:41:23.212Z,8.60
2019-03-16T11:43:52.670Z,8.70
2019-03-16T11:46:24.682Z,8.70
2019-03-16T11:48:58.112Z,8.70
2019-03-16T11:51:28.146Z,8.70
2019-03-16T11:53:59.593Z,8.70
2019-03-16T11:56:32.413Z,8.80
2019-03-16T11:59:03.432Z,8.80
2019-03-16T12:01:34.767Z,8.80
2019-03-16T12:04:04.788Z,8.80
2019-03-16T12:06:34.440Z,8.80
2019-03-16T12:09:06.448Z,8.90
2019-03-16T12:11:36.134Z,9.00
2019-03-16T12:14:05.899Z,8.80
2019-03-16T12:16:35.873Z,8.80
2019-03-16T12:19:06.987Z,8.70
2019-03-16T12:21:40.298Z,8.70
2019-03-16T12:24:14.104Z,8.70
2019-03-16T12:26:53.404Z,8.60
2019-03-16T12:29:34.022Z,8.60
2019-03-16T12:31:57.201Z,8.60
2019-03-16T12:34:26.581Z,8.60
2019-03-16T12:36:55.997Z,8.50
2019-03-16T12:39:25.383Z,8.60
2019-03-16T12:41:55.288Z,8.50
2019-03-16T12:44:24.705Z,8.60
2019-03-16T12:46:56.626Z,8.60
2019-03-16T12:49:27.118Z,8.60
2019-03-16T12:51:57.253Z,8.60
2019-03-16T12:54:26.918Z,8.60
2019-03-16T12:56:56.509Z,8.60
2019-03-16T12:59:27.955Z,8.50
2019-03-16T13:01:57.330Z,8.50
2019-03-16T13:04:27.350Z,8.60
2019-03-16T13:06:58.605Z,8.50
2019-03-16T13:09:30.352Z,8.50
2019-03-16T13:12:00.320Z,8.50
2019-03-16T13:14:33.610Z,8.50
2019-03-16T13:17:05.627Z,8.50
2019-03-16T13:19:35.461Z,8.60
2019-03-16T13:22:05.208Z,8.50
2019-03-16T13:24:35.205Z,8.60
2019-03-16T13:27:04.921Z,8.50
2019-03-16T13:29:38.109Z,8.50
2019-03-16T13:32:08.320Z,8.40
2019-03-16T13:34:38.961Z,8.40
2019-03-16T13:37:09.415Z,8.40
2019-03-16T13:39:39.273Z,8.50
2019-03-16T13:42:10.359Z,8.50
2019-03-16T13:44:42.102Z,8.50
2019-03-16T13:47:11.727Z,8.50
2019-03-16T13:49:41.096Z,8.50
2019-03-16T13:52:11.286Z,8.50
2019-03-16T13:54:41.457Z,8.60
2019-03-16T13:57:25.861Z,8.60
2019-03-16T13:59:56.732Z,8.70
2019-03-16T14:02:26.121Z,8.80
2019-03-16T14:04:55.790Z,8.80
2019-03-16T14:07:26.184Z,8.80
2019-03-16T14:09:57.891Z,8.90
2019-03-16T14:12:30.250Z,9.00
2019-03-16T14:15:00.732Z,9.10
2019-03-16T14:17:31.068Z,9.10
2019-03-16T14:20:00.838Z,9.10
2019-03-16T14:22:30.528Z,9.10
2019-03-16T14:25:00.076Z,9.00
2019-03-16T14:27:29.592Z,9.00
2019-03-16T14:30:00.366Z,8.90
2019-03-16T14:32:32.258Z,8.90
2019-03-16T14:35:03.448Z,8.90
2019-03-16T14:37:33.729Z,9.00
2019-03-16T14:40:06.441Z,8.90
2019-03-16T14:42:37.313Z,9.00
2019-03-16T14:45:11.947Z,9.10
2019-03-16T14:47:42.334Z,9.10
2019-03-16T14:50:20.382Z,9.10
2019-03-16T14:52:49.995Z,9.20
2019-03-16T14:55:20.244Z,9.20
2019-03-16T14:57:50.330Z,9.20
2019-03-16T15:00:20.325Z,9.20
2019-03-16T15:02:51.780Z,9.20
2019-03-16T15:05:21.411Z,9.30
2019-03-16T15:07:53.630Z,9.40
2019-03-16T15:10:23.576Z,9.40
2019-03-16T15:12:54.325Z,9.50
2019-03-16T15:18:44.707Z,9.60
2019-03-16T15:21:24.281Z,9.50
2019-03-16T15:23:53.724Z,9.50
2019-03-16T15:26:23.118Z,9.60
2019-03-16T15:28:55.134Z,9.60
2019-03-16T15:31:23.969Z,9.50
2019-03-16T15:33:58.371Z,9.50
2019-03-16T15:36:29.826Z,9.40
2019-03-16T15:39:00.199Z,9.50
2019-03-16T15:41:29.974Z,9.40
2019-03-16T15:44:00.452Z,9.40
2019-03-16T15:46:32.383Z,9.30
2019-03-16T15:49:03.408Z,9.40
2019-03-16T15:51:34.167Z,9.30
2019-03-16T15:54:05.538Z,9.30
2019-03-16T15:56:35.064Z,9.40
2019-03-16T15:59:04.709Z,9.40
2019-03-16T16:01:34.474Z,9.30
2019-03-16T16:04:05.130Z,9.30
2019-03-16T16:06:35.852Z,9.30
2019-03-16T16:09:07.192Z,9.30
2019-03-16T16:11:36.730Z,9.30
2019-03-16T16:14:08.245Z,9.30
2019-03-16T16:16:38.319Z,9.30
2019-03-16T16:19:10.011Z,9.30
2019-03-16T16:21:39.605Z,9.40
2019-03-16T16:24:09.469Z,9.30
2019-03-16T16:26:38.906Z,9.30
2019-03-16T16:29:08.565Z,9.30
2019-03-16T16:31:38.578Z,9.20
2019-03-16T16:34:12.498Z,9.30
2019-03-16T16:36:47.689Z,9.20
2019-03-16T16:39:17.441Z,9.20
2019-03-16T16:41:47.115Z,9.20
2019-03-16T16:44:17.059Z,9.10
2019-03-16T16:46:46.432Z,9.10
2019-03-16T16:49:15.970Z,9.00
2019-03-16T16:51:45.402Z,9.00
2019-03-16T16:54:15.081Z,8.90
2019-03-16T16:56:44.520Z,8.90
2019-03-16T16:59:13.966Z,8.80
2019-03-16T17:01:43.783Z,8.70
2019-03-16T17:04:13.325Z,8.70
2019-03-16T17:06:42.823Z,8.70
2019-03-16T17:09:12.492Z,8.70
2019-03-16T17:11:42.062Z,8.70
2019-03-16T17:14:11.916Z,8.60
2019-03-16T17:16:41.750Z,8.60
2019-03-16T17:19:11.307Z,8.60
2019-03-16T17:21:40.846Z,8.60
2019-03-16T17:24:10.376Z,8.60
2019-03-16T17:26:39.884Z,8.60
2019-03-16T17:29:09.287Z,8.60
2019-03-16T17:31:42.469Z,8.50
2019-03-16T17:34:12.191Z,8.40
2019-03-16T17:36:41.898Z,8.30
2019-03-16T17:39:11.390Z,8.30
2019-03-16T17:41:40.883Z,8.20
2019-03-16T17:44:10.971Z,8.20
2019-03-16T17:46:40.486Z,8.10
2019-03-16T17:49:10.027Z,8.10
2019-03-16T17:51:40.232Z,8.10
2019-03-16T17:54:10.106Z,8.10
2019-03-16T17:56:40.389Z,8.00
2019-03-16T17:59:10.222Z,7.90
2019-03-16T18:01:54.026Z,7.80
2019-03-16T18:04:13.755Z,7.90
2019-03-16T18:06:44.364Z,7.80
2019-03-16T18:09:14.322Z,7.60
2019-03-16T18:11:44.643Z,7.50
2019-03-16T18:14:17.290Z,7.50
2019-03-16T18:16:46.881Z,7.60
2019-03-16T18:19:16.429Z,7.60
2019-03-16T18:21:46.098Z,7.60
2019-03-16T18:24:15.775Z,7.50
2019-03-16T18:26:45.269Z,7.40
2019-03-16T18:29:15.849Z,7.30
2019-03-16T18:31:46.367Z,7.40
2019-03-16T18:34:16.369Z,7.40
2019-03-16T18:36:46.287Z,7.20
2019-03-16T18:39:15.946Z,7.30
2019-03-16T18:41:45.322Z,7.40
2019-03-16T18:44:14.788Z,7.40
2019-03-16T18:46:45.490Z,7.40
2019-03-16T18:49:15.066Z,7.30
2019-03-16T18:51:44.619Z,7.30
2019-03-16T18:54:14.497Z,7.20
2019-03-16T18:59:52.976Z,7.20
2019-03-16T19:02:23.215Z,7.20
2019-03-16T19:04:56.759Z,7.10
2019-03-16T19:07:27.645Z,7.10
2019-03-16T19:09:57.611Z,7.10
2019-03-16T19:12:30.433Z,7.10
2019-03-16T19:15:06.736Z,7.10
2019-03-16T19:17:40.821Z,6.90
2019-03-16T19:20:12.771Z,6.70
2019-03-16T19:22:43.622Z,6.80
2019-03-16T19:25:23.295Z,6.80
2019-03-16T19:27:55.682Z,6.80
2019-03-16T19:30:25.919Z,6.80
2019-03-16T19:32:58.056Z,6.70
2019-03-16T19:35:30.016Z,6.60
2019-03-16T19:38:09.093Z,6.70
2019-03-16T19:40:41.390Z,6.60
2019-03-16T19:43:15.058Z,6.60
2019-03-16T19:45:45.636Z,6.70
2019-03-16T19:48:15.306Z,6.60
2019-03-16T19:50:52.011Z,6.70
2019-03-16T19:53:23.358Z,6.50
2019-03-16T19:55:55.724Z,6.30
2019-03-16T19:58:27.679Z,6.40
2019-03-16T20:00:57.057Z,6.40
2019-03-16T20:03:30.359Z,6.50
2019-03-16T20:06:02.318Z,6.50
2019-03-16T20:08:32.937Z,6.50
2019-03-16T20:11:06.773Z,6.50
2019-03-16T20:13:42.078Z,6.40
2019-03-16T20:16:16.340Z,6.30
2019-03-16T20:18:51.269Z,6.30
2019-03-16T20:21:21.037Z,6.30
2019-03-16T20:23:50.776Z,6.30
2019-03-16T20:26:22.785Z,6.30
2019-03-16T20:28:54.677Z,6.20
2019-03-16T20:31:25.221Z,6.10
2019-03-16T20:33:58.680Z,6.10
2019-03-16T20:36:29.454Z,6.10
2019-03-16T20:38:59.342Z,6.00
2019-03-16T20:41:36.601Z,6.10
2019-03-16T20:44:06.818Z,5.90
2019-03-16T20:46:36.642Z,5.70
2019-03-16T20:49:06.963Z,5.80
2019-03-16T20:51:36.354Z,5.90
2019-03-16T20:54:09.112Z,6.00
2019-03-16T20:56:43.157Z,6.00
2019-03-16T20:59:12.918Z,5.90
2019-03-16T21:01:43.329Z,5.90
2019-03-16T21:04:12.954Z,5.90
2019-03-16T21:06:42.460Z,5.90
2019-03-16T21:09:11.964Z,5.90
2019-03-16T21:11:41.363Z,5.90
2019-03-16T21:14:11.167Z,5.90
2019-03-16T21:16:40.618Z,5.80
2019-03-16T21:19:10.332Z,5.80
2019-03-16T21:21:40.270Z,5.80
2019-03-16T21:24:11.681Z,5.70
2019-03-16T21:26:52.062Z,5.60
2019-03-16T21:29:12.091Z,5.60
2019-03-16T21:31:42.075Z,5.50
2019-03-16T21:34:14.517Z,5.60
2019-03-16T21:36:46.497Z,5.50
2019-03-16T21:39:17.101Z,5.60
2019-03-16T21:41:47.187Z,5.50
2019-03-16T21:44:19.042Z,5.50
2019-03-16T21:46:49.710Z,5.50
2019-03-16T21:49:20.564Z,5.50
2019-03-16T21:51:52.006Z,5.50
2019-03-16T21:54:23.170Z,5.50
2019-03-16T21:56:55.262Z,5.50
2019-03-16T21:59:26.562Z,5.40
2019-03-16T22:01:56.808Z,5.40
2019-03-16T22:04:26.403Z,5.40
2019-03-16T22:06:56.731Z,5.40
2019-03-16T22:09:27.587Z,5.40
2019-03-16T22:11:56.988Z,5.40
2019-03-16T22:14:26.589Z,5.30
2019-03-16T22:16:56.275Z,5.30
2019-03-16T22:19:27.511Z,5.20
2019-03-16T22:21:57.045Z,5.20
2019-03-16T22:24:26.484Z,5.10
2019-03-16T22:26:56.746Z,5.20
2019-03-16T22:29:26.545Z,5.10
2019-03-16T22:31:56.577Z,5.10
2019-03-16T22:34:25.940Z,5.20
2019-03-16T22:36:55.330Z,4.70
2019-03-16T22:39:24.799Z,4.90
2019-03-16T22:41:54.422Z,4.90
2019-03-16T22:44:24.169Z,4.70
2019-03-16T22:46:54.089Z,4.80
2019-03-16T22:49:23.554Z,4.90
2019-03-16T22:51:53.239Z,4.90
2019-03-16T22:54:22.809Z,4.90
2019-03-16T22:56:52.259Z,4.90
2019-03-16T22:59:21.683Z,4.90
2019-03-16T23:01:51.418Z,4.90
2019-03-16T23:04:21.096Z,4.90
2019-03-16T23:06:50.900Z,4.90
2019-03-16T23:09:20.945Z,4.80
2019-03-16T23:11:50.520Z,4.80
2019-03-16T23:14:20.484Z,4.70
2019-03-16T23:16:51.560Z,4.70
2019-03-16T23:19:21.043Z,4.80
2019-03-16T23:21:50.427Z,4.70
2019-03-16T23:24:20.176Z,4.70
2019-03-16T23:26:50.087Z,4.60
2019-03-16T23:29:20.268Z,4.60
2019-03-16T23:31:49.799Z,4.50
2019-03-16T23:34:19.865Z,4.50
2019-03-16T23:36:49.782Z,4.60
2019-03-16T23:39:19.791Z,4.40
2019-03-16T23:41:50.123Z,4.50
2019-03-16T23:44:19.962Z,4.40
2019-03-16T23:46:49.564Z,4.40
2019-03-16T23:49:19.758Z,4.50
2019-03-16T23:51:49.210Z,4.50
2019-03-16T23:54:18.924Z,4.30
2019-03-16T23:56:48.335Z,4.30
2019-03-16T23:59:17.778Z,4.40
